createdAt,value
2023-03-20T00:00:10.293Z,12.00
2023-03-20T00:02:58.240Z,11.90
2023-03-20T00:05:49.155Z,11.80
2023-03-20T00:08:39.345Z,11.70
2023-03-20T00:11:30.738Z,11.60
2023-03-20T00:14:22.361Z,11.50
2023-03-20T00:17:18.324Z,11.40
2023-03-20T00:20:06.593Z,11.50
2023-03-20T00:22:52.048Z,11.60
2023-03-20T00:25:39.545Z,11.50
2023-03-20T00:28:41.543Z,11.40
2023-03-20T00:31:32.110Z,11.30
2023-03-20T00:34:22.229Z,11.20
2023-03-20T00:37:08.736Z,11.10
2023-03-20T00:39:54.037Z,11.00
2023-03-20T00:42:43.827Z,10.90
2023-03-20T00:45:34.047Z,10.70
2023-03-20T00:48:19.896Z,10.60
2023-03-20T00:51:05.552Z,10.60
2023-03-20T00:53:51.110Z,10.50
2023-03-20T00:56:42.047Z,10.20
2023-03-20T00:59:34.316Z,10.10
2023-03-20T01:02:21.748Z,10.10
2023-03-20T01:05:07.657Z,10.10
2023-03-20T01:07:56.385Z,10.10
2023-03-20T01:10:42.912Z,9.90
2023-03-20T01:13:34.746Z,9.70
2023-03-20T01:16:26.144Z,9.60
2023-03-20T01:19:14.463Z,9.70
2023-03-20T01:22:02.722Z,9.80
2023-03-20T01:24:48.073Z,9.80
2023-03-20T01:27:35.910Z,9.70
2023-03-20T01:30:29.181Z,9.90
2023-03-20T01:33:23.820Z,9.90
2023-03-20T01:36:15.053Z,10.10
2023-03-20T01:39:02.949Z,10.20
2023-03-20T01:41:52.507Z,10.10
2023-03-20T01:44:38.302Z,10.10
2023-03-20T01:47:26.028Z,10.00
2023-03-20T01:50:23.424Z,9.90
2023-03-20T01:53:15.818Z,9.90
2023-03-20T01:56:01.741Z,9.90
2023-03-20T01:59:08.186Z,9.90
2023-03-20T02:01:56.168Z,9.90
2023-03-20T02:04:53.126Z,9.90
2023-03-20T02:07:39.244Z,9.90
2023-03-20T02:10:24.922Z,9.90
2023-03-20T02:13:11.222Z,9.90
2023-03-20T02:16:07.545Z,9.90
2023-03-20T02:21:59.486Z,10.10
2023-03-20T02:25:15.650Z,10.20
2023-03-20T02:28:20.201Z,10.30
2023-03-20T02:31:29.732Z,10.40
2023-03-20T02:34:48.589Z,10.60
2023-03-20T02:37:46.414Z,10.60
2023-03-20T02:40:46.857Z,10.60
2023-03-20T02:43:57.792Z,10.50
2023-03-20T02:46:48.617Z,10.40
2023-03-20T02:49:52.731Z,10.40
2023-03-20T02:52:54.477Z,10.50
2023-03-20T02:55:49.715Z,10.60
2023-03-20T02:58:47.991Z,10.60
2023-03-20T03:01:49.622Z,10.70
2023-03-20T03:04:53.832Z,10.80
2023-03-20T03:07:43.506Z,10.80
2023-03-20T03:10:36.960Z,10.80
2023-03-20T03:13:29.037Z,10.90
2023-03-20T03:16:29.100Z,10.90
2023-03-20T03:19:23.494Z,11.00
2023-03-20T03:22:09.244Z,11.00
2023-03-20T03:24:59.944Z,11.00
2023-03-20T03:27:49.701Z,11.00
2023-03-20T03:30:39.616Z,11.00
2023-03-20T03:33:29.782Z,10.90
2023-03-20T03:36:49.522Z,11.00
2023-03-20T03:40:04.955Z,10.90
2023-03-20T03:43:09.128Z,10.90
2023-03-20T03:46:04.756Z,10.70
2023-03-20T03:48:56.834Z,10.70
2023-03-20T03:51:46.052Z,10.60
2023-03-20T03:54:55.603Z,10.60
2023-03-20T03:57:52.388Z,10.50
2023-03-20T04:00:43.225Z,10.50
2023-03-20T04:03:35.485Z,10.50
2023-03-20T04:06:21.773Z,10.50
2023-03-20T04:09:09.970Z,10.50
2023-03-20T04:11:55.615Z,10.50
2023-03-20T04:14:43.258Z,10.50
2023-03-20T04:17:31.299Z,10.40
2023-03-20T04:20:17.386Z,10.40
2023-03-20T04:23:02.649Z,10.40
2023-03-20T04:25:50.020Z,10.40
2023-03-20T04:28:35.269Z,10.40
2023-03-20T04:31:20.517Z,10.40
2023-03-20T04:34:07.933Z,10.40
2023-03-20T04:36:55.348Z,10.40
2023-03-20T04:39:42.394Z,10.50
2023-03-20T04:42:27.699Z,10.50
2023-03-20T04:45:13.225Z,10.50
2023-03-20T04:48:01.917Z,10.50
2023-03-20T04:50:48.784Z,10.50
2023-03-20T04:53:34.180Z,10.50
2023-03-20T04:56:21.980Z,10.50
2023-03-20T04:59:07.273Z,10.50
2023-03-20T05:01:55.315Z,10.50
2023-03-20T05:04:43.071Z,10.50
2023-03-20T05:07:30.968Z,10.50
2023-03-20T05:10:16.512Z,10.50
2023-03-20T05:13:03.906Z,10.50
2023-03-20T05:15:54.044Z,10.50
2023-03-20T05:18:39.367Z,10.50
2023-03-20T05:21:29.393Z,10.60
2023-03-20T05:24:14.624Z,10.60
2023-03-20T05:27:02.321Z,10.60
2023-03-20T05:29:50.232Z,10.60
2023-03-20T05:32:36.924Z,10.60
2023-03-20T05:35:22.785Z,10.60
2023-03-20T05:38:08.261Z,10.60
2023-03-20T05:41:00.888Z,10.60
2023-03-20T05:43:49.041Z,10.70
2023-03-20T05:46:37.001Z,10.70
2023-03-20T05:49:23.170Z,10.60
2023-03-20T05:52:11.096Z,10.70
2023-03-20T05:54:56.596Z,10.60
2023-03-20T05:57:42.878Z,10.60
2023-03-20T06:00:28.341Z,10.60
2023-03-20T06:03:14.036Z,10.60
2023-03-20T06:05:59.306Z,10.60
2023-03-20T06:08:45.338Z,10.70
2023-03-20T06:11:37.630Z,10.70
2023-03-20T06:14:23.331Z,10.80
2023-03-20T06:17:11.048Z,10.60
2023-03-20T06:19:56.462Z,10.60
2023-03-20T06:22:45.562Z,10.70
2023-03-20T06:25:30.996Z,10.70
2023-03-20T06:28:18.576Z,10.40
2023-03-20T06:31:06.864Z,10.40
2023-03-20T06:33:52.678Z,10.30
2023-03-20T06:36:38.137Z,10.20
2023-03-20T06:39:25.474Z,10.20
2023-03-20T06:42:15.080Z,10.10
2023-03-20T06:45:01.889Z,10.10
2023-03-20T06:47:47.336Z,10.00
2023-03-20T06:50:35.712Z,9.90
2023-03-20T06:53:22.375Z,9.90
2023-03-20T06:56:08.993Z,9.80
2023-03-20T06:58:54.286Z,9.70
2023-03-20T07:01:39.555Z,9.70
2023-03-20T07:04:25.530Z,9.60
2023-03-20T07:07:10.874Z,9.50
2023-03-20T07:09:56.424Z,9.60
2023-03-20T07:12:41.866Z,9.70
2023-03-20T07:15:27.801Z,9.60
2023-03-20T07:18:13.487Z,9.50
2023-03-20T07:21:02.466Z,9.60
2023-03-20T07:23:47.751Z,9.50
2023-03-20T07:26:33.467Z,9.40
2023-03-20T07:29:19.138Z,9.40
2023-03-20T07:32:05.257Z,9.50
2023-03-20T07:34:53.223Z,9.60
2023-03-20T07:37:44.079Z,9.60
2023-03-20T07:40:29.603Z,9.50
2023-03-20T07:43:17.836Z,9.40
2023-03-20T07:46:08.952Z,9.30
2023-03-20T07:48:56.583Z,9.20
2023-03-20T07:51:41.919Z,9.30
2023-03-20T07:54:29.954Z,9.30
2023-03-20T07:57:18.239Z,9.30
2023-03-20T08:00:04.266Z,9.40
2023-03-20T08:02:49.815Z,9.40
2023-03-20T08:05:35.853Z,9.50
2023-03-20T08:08:21.860Z,9.60
2023-03-20T08:11:07.687Z,9.70
2023-03-20T08:13:53.265Z,10.10
2023-03-20T08:16:38.677Z,10.50
2023-03-20T08:19:24.278Z,10.80
2023-03-20T08:22:09.596Z,10.80
2023-03-20T08:24:54.746Z,10.50
2023-03-20T08:27:42.874Z,10.40
2023-03-20T08:30:28.388Z,10.20
2023-03-20T08:33:17.904Z,10.20
2023-03-20T08:36:04.241Z,10.10
2023-03-20T08:38:54.285Z,10.10
2023-03-20T08:41:39.897Z,10.20
2023-03-20T08:44:26.854Z,10.30
2023-03-20T08:47:12.457Z,10.40
2023-03-20T08:49:57.983Z,10.70
2023-03-20T08:52:44.314Z,11.10
2023-03-20T08:55:29.998Z,11.10
2023-03-20T08:58:15.456Z,11.20
2023-03-20T09:01:09.169Z,11.60
2023-03-20T09:03:55.288Z,11.80
2023-03-20T09:06:41.111Z,11.90
2023-03-20T09:09:29.629Z,12.10
2023-03-20T09:12:15.744Z,12.40
2023-03-20T09:15:01.481Z,12.20
2023-03-20T09:17:46.887Z,12.30
2023-03-20T09:20:32.582Z,12.70
2023-03-20T09:23:20.625Z,12.80
2023-03-20T09:26:06.296Z,12.80
2023-03-20T09:28:54.911Z,13.10
2023-03-20T09:31:42.188Z,12.80
2023-03-20T09:34:29.663Z,13.10
2023-03-20T09:37:17.196Z,13.00
2023-03-20T09:40:02.983Z,13.10
2023-03-20T09:42:53.264Z,13.00
2023-03-20T09:45:41.699Z,13.20
2023-03-20T09:48:43.297Z,13.10
2023-03-20T09:51:43.380Z,12.90
2023-03-20T09:54:53.540Z,12.90
2023-03-20T09:57:42.233Z,13.70
2023-03-20T10:00:31.164Z,13.50
2023-03-20T10:03:18.617Z,13.40
2023-03-20T10:06:07.336Z,13.10
2023-03-20T10:08:52.585Z,12.70
2023-03-20T10:11:52.833Z,12.60
2023-03-20T10:15:09.001Z,12.50
2023-03-20T10:18:17.724Z,12.60
2023-03-20T10:21:15.441Z,12.60
2023-03-20T10:24:04.670Z,12.90
2023-03-20T10:26:53.185Z,12.70
2023-03-20T10:30:00.564Z,12.80
2023-03-20T10:33:04.408Z,12.60
2023-03-20T10:35:53.317Z,12.60
2023-03-20T10:39:06.366Z,12.50
2023-03-20T10:41:58.644Z,12.60
2023-03-20T10:44:52.205Z,12.50
2023-03-20T10:47:44.353Z,12.80
2023-03-20T10:50:36.988Z,12.90
2023-03-20T10:53:34.630Z,13.30
2023-03-20T10:56:40.921Z,13.30
2023-03-20T10:59:36.452Z,13.40
2023-03-20T11:02:25.137Z,13.30
2023-03-20T11:05:25.670Z,12.90
2023-03-20T11:08:14.964Z,12.80
2023-03-20T11:11:02.522Z,12.60
2023-03-20T11:13:49.241Z,12.80
2023-03-20T11:16:37.062Z,13.10
2023-03-20T11:19:27.004Z,12.80
2023-03-20T11:22:21.790Z,13.20
2023-03-20T11:25:07.593Z,13.60
2023-03-20T11:27:56.507Z,13.50
2023-03-20T11:30:48.553Z,13.20
2023-03-20T11:34:06.947Z,12.90
2023-03-20T11:37:16.680Z,13.30
2023-03-20T11:40:15.195Z,13.40
2023-03-20T11:43:01.091Z,13.80
2023-03-20T11:45:51.483Z,14.20
2023-03-20T11:48:42.634Z,13.80
2023-03-20T11:51:28.048Z,13.90
2023-03-20T11:54:20.838Z,13.80
2023-03-20T11:57:06.380Z,13.30
2023-03-20T11:59:51.673Z,13.50
2023-03-20T12:02:40.366Z,13.30
2023-03-20T12:05:30.999Z,13.30
2023-03-20T12:08:27.090Z,13.10
2023-03-20T12:11:42.951Z,13.20
2023-03-20T12:14:43.311Z,13.60
2023-03-20T12:17:57.404Z,13.10
2023-03-20T12:20:57.179Z,12.80
2023-03-20T12:24:10.306Z,13.20
2023-03-20T12:27:14.875Z,13.20
2023-03-20T12:30:29.527Z,13.20
2023-03-20T12:33:20.401Z,13.40
2023-03-20T12:36:19.093Z,13.60
2023-03-20T12:39:11.290Z,13.60
2023-03-20T12:42:41.785Z,13.40
2023-03-20T12:45:44.234Z,13.30
2023-03-20T12:48:36.870Z,13.00
2023-03-20T12:51:55.489Z,12.90
2023-03-20T12:54:58.921Z,12.70
2023-03-20T12:58:01.511Z,12.70
2023-03-20T13:00:52.238Z,12.70
2023-03-20T13:03:56.492Z,12.80
2023-03-20T13:06:58.987Z,12.90
2023-03-20T13:10:08.953Z,13.30
2023-03-20T13:12:54.125Z,13.10
2023-03-20T13:16:04.375Z,13.30
2023-03-20T13:19:26.927Z,13.10
2023-03-20T13:22:18.719Z,12.50
2023-03-20T13:25:22.977Z,12.80
2023-03-20T13:28:18.441Z,12.90
2023-03-20T13:31:29.828Z,12.90
2023-03-20T13:34:46.221Z,12.90
2023-03-20T13:37:54.538Z,13.40
2023-03-20T13:40:43.986Z,13.70
2023-03-20T13:43:41.854Z,13.40
2023-03-20T13:46:35.007Z,13.40
2023-03-20T13:49:38.820Z,13.20
2023-03-20T13:52:29.579Z,12.80
2023-03-20T13:55:32.099Z,13.10
2023-03-20T13:58:23.505Z,13.20
2023-03-20T14:01:29.585Z,13.10
2023-03-20T14:04:20.117Z,12.80
2023-03-20T14:07:33.785Z,12.80
2023-03-20T14:10:22.698Z,12.50
2023-03-20T14:13:15.403Z,12.50
2023-03-20T14:16:04.344Z,12.70
2023-03-20T14:19:04.118Z,12.50
2023-03-20T14:21:54.006Z,12.50
2023-03-20T14:25:06.808Z,12.40
2023-03-20T14:28:09.622Z,12.30
2023-03-20T14:31:25.275Z,12.40
2023-03-20T14:34:13.450Z,12.20
2023-03-20T14:37:04.434Z,12.10
2023-03-20T14:40:11.860Z,12.20
2023-03-20T14:43:41.607Z,12.30
2023-03-20T14:46:54.000Z,12.20
2023-03-20T14:50:10.152Z,12.10
2023-03-20T14:53:18.624Z,12.00
2023-03-20T14:56:16.550Z,11.90
2023-03-20T14:59:06.827Z,12.00
2023-03-20T15:01:59.210Z,12.10
2023-03-20T15:04:44.881Z,12.00
2023-03-20T15:07:34.229Z,11.90
2023-03-20T15:10:20.247Z,11.80
2023-03-20T15:13:08.015Z,11.80
2023-03-20T15:16:06.862Z,11.90
2023-03-20T15:18:55.476Z,11.80
2023-03-20T15:21:41.711Z,11.90
2023-03-20T15:24:29.251Z,11.90
2023-03-20T15:27:14.654Z,11.90
2023-03-20T15:30:04.856Z,12.10
2023-03-20T15:32:56.605Z,12.10
2023-03-20T15:35:41.911Z,12.10
2023-03-20T15:38:34.283Z,12.00
2023-03-20T15:41:27.074Z,12.00
2023-03-20T15:44:15.496Z,12.00
2023-03-20T15:47:10.753Z,11.90
2023-03-20T15:50:00.804Z,12.00
2023-03-20T15:52:53.144Z,11.80
2023-03-20T15:55:39.026Z,11.70
2023-03-20T15:58:27.046Z,11.80
2023-03-20T16:01:18.839Z,11.90
2023-03-20T16:04:04.645Z,11.90
2023-03-20T16:06:55.464Z,12.10
2023-03-20T16:09:44.916Z,12.10
2023-03-20T16:12:30.728Z,11.90
2023-03-20T16:15:18.466Z,12.00
2023-03-20T16:18:09.447Z,11.90
2023-03-20T16:21:02.454Z,11.70
2023-03-20T16:23:54.942Z,11.70
2023-03-20T16:26:45.285Z,11.70
2023-03-20T16:29:30.907Z,11.70
2023-03-20T16:32:26.887Z,11.70
2023-03-20T16:35:19.392Z,11.50
2023-03-20T16:38:17.661Z,11.50
2023-03-20T16:41:22.104Z,11.40
2023-03-20T16:44:14.589Z,11.30
2023-03-20T16:47:17.209Z,11.20
2023-03-20T16:50:13.000Z,11.20
2023-03-20T16:52:58.988Z,11.20
2023-03-20T16:55:49.919Z,11.10
2023-03-20T16:58:35.617Z,11.20
2023-03-20T17:01:30.649Z,11.10
2023-03-20T17:04:20.097Z,11.10
2023-03-20T17:07:25.532Z,11.10
2023-03-20T17:10:20.056Z,11.00
2023-03-20T17:13:07.498Z,11.00
2023-03-20T17:15:53.121Z,10.90
2023-03-20T17:18:38.530Z,10.70
2023-03-20T17:21:24.132Z,10.70
2023-03-20T17:24:11.240Z,10.70
2023-03-20T17:26:58.846Z,10.70
2023-03-20T17:29:49.301Z,10.60
2023-03-20T17:32:37.156Z,10.70
2023-03-20T17:35:26.589Z,10.60
2023-03-20T17:38:21.878Z,10.70
2023-03-20T17:41:14.378Z,10.60
2023-03-20T17:44:00.462Z,10.60
2023-03-20T17:46:57.691Z,10.60
2023-03-20T17:49:44.853Z,10.60
2023-03-20T17:52:30.485Z,10.60
2023-03-20T17:55:16.247Z,10.60
2023-03-20T17:58:01.866Z,10.60
2023-03-20T18:00:47.540Z,10.60
2023-03-20T18:03:33.695Z,10.60
2023-03-20T18:06:31.349Z,10.50
2023-03-20T18:09:16.521Z,10.50
2023-03-20T18:12:02.175Z,10.50
2023-03-20T18:14:48.475Z,10.50
2023-03-20T18:17:33.821Z,10.50
2023-03-20T18:20:31.575Z,10.60
2023-03-20T18:23:17.036Z,10.60
2023-03-20T18:26:02.529Z,10.60
2023-03-20T18:28:49.470Z,10.60
2023-03-20T18:31:35.183Z,10.60
2023-03-20T18:34:23.339Z,10.60
2023-03-20T18:37:14.046Z,10.60
2023-03-20T18:40:00.992Z,10.60
2023-03-20T18:42:46.687Z,10.50
2023-03-20T18:45:32.488Z,10.50
2023-03-20T18:48:18.293Z,10.50
2023-03-20T18:51:03.810Z,10.50
2023-03-20T18:53:49.088Z,10.50
2023-03-20T18:56:36.847Z,10.50
2023-03-20T18:59:22.220Z,10.50
2023-03-20T19:02:07.851Z,10.50
2023-03-20T19:04:53.392Z,10.40
2023-03-20T19:07:42.002Z,10.40
2023-03-20T19:10:30.943Z,10.50
2023-03-20T19:13:19.445Z,10.40
2023-03-20T19:16:17.948Z,10.40
2023-03-20T19:19:08.199Z,10.50
2023-03-20T19:21:55.870Z,10.50
2023-03-20T19:24:43.650Z,10.50
2023-03-20T19:27:31.159Z,10.40
2023-03-20T19:30:23.858Z,10.40
2023-03-20T19:33:09.626Z,10.40
2023-03-20T19:36:04.864Z,10.50
2023-03-20T19:38:51.352Z,10.40
2023-03-20T19:41:37.285Z,10.40
2023-03-20T19:44:23.240Z,10.40
2023-03-20T19:47:09.410Z,10.40
2023-03-20T19:49:55.011Z,10.40
2023-03-20T19:52:43.081Z,10.30
2023-03-20T19:55:28.933Z,10.20
2023-03-20T19:58:14.643Z,10.20
2023-03-20T20:01:13.911Z,10.20
2023-03-20T20:04:00.977Z,10.10
2023-03-20T20:06:47.603Z,10.20
2023-03-20T20:09:33.421Z,10.20
2023-03-20T20:12:18.967Z,10.20
2023-03-20T20:15:08.458Z,10.20
2023-03-20T20:17:54.207Z,10.20
2023-03-20T20:21:16.027Z,10.30
2023-03-20T20:23:52.268Z,10.20
2023-03-20T20:26:41.311Z,10.30
2023-03-20T20:29:33.343Z,10.20
2023-03-20T20:32:21.143Z,10.20
2023-03-20T20:35:44.564Z,10.20
2023-03-20T20:38:44.500Z,10.20
2023-03-20T20:41:18.713Z,10.20
2023-03-20T20:44:15.800Z,10.10
2023-03-20T20:47:03.849Z,10.10
2023-03-20T20:49:52.072Z,10.20
2023-03-20T20:52:40.324Z,10.10
2023-03-20T20:55:29.160Z,10.10
2023-03-20T20:58:14.879Z,10.10
2023-03-20T21:01:04.388Z,10.10
2023-03-20T21:03:52.266Z,10.10
2023-03-20T21:07:11.448Z,10.10
2023-03-20T21:09:49.462Z,10.00
2023-03-20T21:12:51.964Z,10.00
2023-03-20T21:15:43.340Z,10.00
2023-03-20T21:18:28.962Z,9.90
2023-03-20T21:21:14.983Z,9.90
2023-03-20T21:24:01.213Z,9.90
2023-03-20T21:26:46.984Z,9.90
2023-03-20T21:29:35.623Z,9.80
2023-03-20T21:32:22.023Z,9.90
2023-03-20T21:35:09.309Z,9.80
2023-03-20T21:41:09.179Z,9.90
2023-03-20T21:43:54.299Z,9.90
2023-03-20T21:47:10.404Z,10.00
2023-03-20T21:53:28.578Z,10.00
2023-03-20T22:02:25.263Z,10.00
2023-03-20T22:06:02.468Z,10.00
2023-03-20T22:12:06.079Z,10.00
2023-03-20T22:18:14.833Z,10.00
2023-03-20T22:27:42.859Z,10.00
2023-03-20T22:30:56.146Z,10.00
2023-03-20T22:34:09.193Z,10.00
2023-03-20T22:37:11.137Z,9.90
2023-03-20T22:42:54.039Z,9.90
2023-03-20T22:45:43.348Z,9.90
2023-03-20T22:48:32.750Z,9.90
2023-03-20T22:51:28.631Z,9.90
2023-03-20T22:54:18.230Z,9.80
2023-03-20T22:57:06.042Z,9.80
2023-03-20T22:59:51.465Z,9.80
2023-03-20T23:02:37.150Z,9.80
2023-03-20T23:05:22.537Z,9.80
2023-03-20T23:08:10.780Z,9.70
2023-03-20T23:10:58.702Z,9.70
2023-03-20T23:13:45.172Z,9.70
2023-03-20T23:16:30.524Z,9.70
2023-03-20T23:19:16.707Z,9.70
2023-03-20T23:22:02.756Z,9.60
2023-03-20T23:24:48.071Z,9.60
2023-03-20T23:27:33.178Z,9.60
2023-03-20T23:30:19.865Z,9.60
2023-03-20T23:33:08.305Z,9.60
2023-03-20T23:36:12.451Z,9.60
2023-03-20T23:39:09.416Z,9.60
2023-03-20T23:42:08.437Z,9.60
2023-03-20T23:45:07.168Z,9.60
2023-03-20T23:47:58.764Z,9.60
2023-03-20T23:50:53.031Z,9.60
2023-03-20T23:53:39.927Z,9.60
2023-03-20T23:56:29.875Z,9.60
2023-03-20T23:59:21.948Z,9.50
